Time;durP1;ratioP1;P1;durP2;ratioP2;P2;SDS_P1;SDS_P2;PMS_P1;PMS_P2;Temp;Humidity;BMP_temperature;BMP_pressure;BME280_temperature;BME280_humidity;BME280_pressure;Samples;Min_cycle;Max_cycle;Signal;HPM_P1;HPM_P2
2024/01/24 00:00:32;;;;;;;1.55;0.63;;;;;;;9.86;100.00;99934.75;5046509;28;20028;-84
2024/01/24 00:02:57;;;;;;;0.32;0.32;;;;;;;9.87;100.00;99945.13;5071938;28;20039;-85
2024/01/24 00:05:23;;;;;;;0.40;0.30;;;;;;;10.04;100.00;99959.94;5050603;28;20040;-85
2024/01/24 00:07:50;;;;;;;0.40;0.30;;;;;;;9.87;100.00;99949.75;5051265;28;20040;-85
2024/01/24 00:10:15;;;;;;;0.40;0.40;;;;;;;10.05;100.00;99948.03;5060966;28;20675;-85
2024/01/24 00:12:41;;;;;;;0.68;0.35;;;;;;;10.24;100.00;99942.47;5046864;28;20028;-85
2024/01/24 00:15:07;;;;;;;0.38;0.38;;;;;;;10.30;100.00;99937.56;5051084;28;20098;-85
2024/01/24 00:17:32;;;;;;;0.40;0.40;;;;;;;10.21;100.00;99931.69;5033342;28;20028;-84
2024/01/24 00:19:58;;;;;;;0.52;0.38;;;;;;;10.25;100.00;99914.44;5029190;28;20028;-84
2024/01/24 00:22:23;;;;;;;0.50;0.50;;;;;;;10.34;100.00;99893.38;5047383;28;20077;-84
2024/01/24 00:24:48;;;;;;;0.30;0.30;;;;;;;10.37;100.00;99889.97;5042781;28;20040;-84
2024/01/24 00:27:14;;;;;;;0.52;0.45;;;;;;;10.33;100.00;99889.16;5040964;28;20036;-83
2024/01/24 00:29:40;;;;;;;0.43;0.43;;;;;;;10.38;100.00;99885.31;5042800;28;20017;-83
2024/01/24 00:32:05;;;;;;;0.90;0.57;;;;;;;10.48;100.00;99880.03;5057446;28;20030;-84
2024/01/24 00:34:31;;;;;;;0.85;0.68;;;;;;;10.53;100.00;99865.47;5040583;28;20035;-82
2024/01/24 00:36:56;;;;;;;1.00;0.70;;;;;;;10.59;100.00;99872.81;5040214;28;20032;-84
2024/01/24 00:39:22;;;;;;;0.50;0.50;;;;;;;10.59;100.00;99880.88;5039373;28;20048;-84
2024/01/24 00:41:47;;;;;;;0.57;0.50;;;;;;;10.71;100.00;99867.13;5037942;28;20040;-84
2024/01/24 00:44:13;;;;;;;3.42;0.95;;;;;;;10.79;100.00;99874.13;5040735;28;20048;-84
2024/01/24 00:46:39;;;;;;;1.30;0.50;;;;;;;10.80;100.00;99858.75;5040186;28;20039;-84
2024/01/24 00:49:09;;;;;;;1.60;0.90;;;;;;;10.80;100.00;99858.75;5036011;28;20044;-84
2024/01/24 00:51:35;;;;;;;2.28;0.70;;;;;;;10.80;100.00;99856.03;5053213;28;20668;-84
2024/01/24 00:54:00;;;;;;;1.50;1.08;;;;;;;10.90;100.00;99853.41;5025306;28;20028;-85
2024/01/24 00:56:26;;;;;;;1.02;0.85;;;;;;;10.95;100.00;99848.81;5048391;28;20090;-84
2024/01/24 00:58:51;;;;;;;0.75;0.75;;;;;;;10.88;100.00;99849.53;5066741;28;20679;-85
2024/01/24 01:01:17;;;;;;;1.10;1.00;;;;;;;11.04;100.00;99843.84;5031215;28;20029;-84
2024/01/24 01:03:42;;;;;;;1.73;0.82;;;;;;;11.13;100.00;99865.84;5065707;28;20031;-83
2024/01/24 01:06:08;;;;;;;3.20;1.45;;;;;;;11.13;100.00;99855.06;5065579;28;20113;-84
2024/01/24 01:08:33;;;;;;;1.15;1.05;;;;;;;11.09;100.00;99871.19;5062840;28;20024;-84
2024/01/24 01:10:59;;;;;;;1.38;0.70;;;;;;;11.10;100.00;99855.81;5032152;28;20473;-83
2024/01/24 01:13:24;;;;;;;1.52;1.13;;;;;;;11.21;100.00;99846.63;5045401;28;20816;-84
2024/01/24 01:15:50;;;;;;;1.27;1.00;;;;;;;11.32;100.00;99844.00;5044119;28;20032;-83
2024/01/24 01:18:15;;;;;;;1.10;1.00;;;;;;;11.28;100.00;99832.41;5045125;28;20097;-85
2024/01/24 01:20:41;;;;;;;1.35;1.20;;;;;;;11.40;100.00;99832.09;5049147;28;20032;-84
2024/01/24 01:23:06;;;;;;;0.77;0.75;;;;;;;11.41;100.00;99823.63;5046673;28;20093;-84
2024/01/24 01:25:32;;;;;;;1.08;0.80;;;;;;;11.38;100.00;99834.38;5067332;28;20036;-84
2024/01/24 01:27:57;;;;;;;1.20;0.90;;;;;;;11.42;100.00;99825.16;5052025;28;20032;-84
2024/01/24 01:30:23;;;;;;;0.65;0.57;;;;;;;11.37;100.00;99813.97;5064975;28;20453;-84
2024/01/24 01:32:49;;;;;;;1.73;1.10;;;;;;;11.57;100.00;99813.28;5279048;22;20020;-85
2024/01/24 02:37:19;;;;;;;1.23;0.60;;;;;;;12.49;100.00;99692.59;5014350;28;20064;-87
2024/01/24 02:39:46;;;;;;;0.82;0.52;;;;;;;12.56;100.00;99683.69;5000014;28;20084;-87
2024/01/24 02:42:11;;;;;;;3.00;0.70;;;;;;;12.25;100.00;99693.41;4997596;28;20041;-86
2024/01/24 02:44:37;;;;;;;0.57;0.47;;;;;;;12.38;100.00;99691.84;5007123;28;20033;-87
2024/01/24 02:47:02;;;;;;;0.50;0.47;;;;;;;12.54;100.00;99700.28;5017163;28;20691;-87
2024/01/24 02:49:28;;;;;;;0.50;0.40;;;;;;;12.58;100.00;99694.88;5019978;28;20064;-86
2024/01/24 02:51:53;;;;;;;0.65;0.65;;;;;;;12.73;100.00;99692.88;5015173;28;20059;-86
2024/01/24 02:54:19;;;;;;;0.80;0.38;;;;;;;12.76;100.00;99692.09;5018480;28;20399;-87
2024/01/24 02:56:45;;;;;;;0.50;0.40;;;;;;;12.79;100.00;99694.03;5018289;28;20051;-87
2024/01/24 02:59:10;;;;;;;0.98;0.45;;;;;;;12.72;100.00;99681.31;5035167;28;20646;-87
2024/01/24 03:01:36;;;;;;;0.60;0.50;;;;;;;12.80;100.00;99674.72;5004319;28;20025;-87
2024/01/24 03:04:01;;;;;;;0.47;0.38;;;;;;;12.73;100.00;99669.34;5015581;28;21092;-87
2024/01/24 03:06:27;;;;;;;1.40;0.47;;;;;;;12.73;100.00;99660.47;5036199;28;20033;-87
2024/01/24 03:08:57;;;;;;;0.60;0.40;;;;;;;12.87;100.00;99646.91;5015939;28;20032;-87
2024/01/24 03:11:23;;;;;;;1.00;0.55;;;;;;;12.82;100.00;99664.28;5014857;28;20054;-87
2024/01/24 03:13:49;;;;;;;0.60;0.40;;;;;;;12.91;100.00;99632.19;5033558;28;20373;-87
2024/01/24 03:16:15;;;;;;;0.40;0.40;;;;;;;12.96;100.00;99620.19;5023494;28;20163;-87
2024/01/24 03:18:41;;;;;;;0.45;0.35;;;;;;;13.06;100.00;99608.56;5016631;28;20094;-87
2024/01/24 03:21:09;;;;;;;1.10;0.50;;;;;;;13.10;100.00;99626.31;5028683;28;20531;-87
2024/01/24 03:23:38;;;;;;;0.52;0.47;;;;;;;13.10;100.00;99625.53;5037523;28;20025;-86
2024/01/24 03:26:05;;;;;;;0.32;0.32;;;;;;;13.03;100.00;99620.13;5014817;28;20036;-87
2024/01/24 03:28:33;;;;;;;0.20;0.20;;;;;;;13.12;100.00;99609.69;5015849;28;20387;-87
2024/01/24 03:31:04;;;;;;;0.40;0.30;;;;;;;13.09;100.00;99613.97;5004539;28;20052;-87
2024/01/24 03:33:29;;;;;;;;;;;;;;;13.20;100.00;99600.38;5038542;28;20025;-86
2024/01/24 03:35:55;;;;;;;0.20;0.20;;;;;;;12.96;100.00;99626.38;5010233;28;19971;-86
2024/01/24 03:38:20;;;;;;;0.57;0.57;;;;;;;13.06;100.00;99622.09;5036137;28;20040;-87
2024/01/24 03:40:46;;;;;;;0.15;0.15;;;;;;;12.98;100.00;99631.38;5004083;28;20402;-88
2024/01/24 03:43:12;;;;;;;0.32;0.32;;;;;;;13.12;100.00;99618.59;5013228;28;20503;-86
2024/01/24 03:45:38;;;;;;;1.08;0.40;;;;;;;13.07;100.00;99610.09;5012507;28;20029;-87
2024/01/24 03:48:07;;;;;;;0.50;0.50;;;;;;;13.06;100.00;99630.19;4998717;28;20427;-86
2024/01/24 03:50:33;;;;;;;3.13;0.43;;;;;;;12.83;100.00;99624.53;5015974;28;20052;-86
2024/01/24 03:53:02;;;;;;;0.47;0.38;;;;;;;12.91;100.00;99626.03;5017374;28;20108;-87
2024/01/24 03:55:28;;;;;;;0.45;0.40;;;;;;;13.07;100.00;99602.00;5020980;28;20704;-87
2024/01/24 03:57:54;;;;;;;0.47;0.40;;;;;;;12.95;100.00;99632.19;5038422;28;20029;-87
2024/01/24 04:00:19;;;;;;;0.50;0.50;;;;;;;12.77;100.00;99653.13;5012904;28;20036;-84
2024/01/24 04:02:45;;;;;;;1.67;0.55;;;;;;;12.71;100.00;99687.88;5017133;28;20032;-85
2024/01/24 04:05:10;;;;;;;0.35;0.35;;;;;;;12.41;100.00;99645.16;5040088;28;20056;-87
2024/01/24 04:07:36;;;;;;;4.57;0.55;;;;;;;12.63;100.00;99662.84;5001376;28;20043;-86
2024/01/24 04:10:03;;;;;;;0.43;0.43;;;;;;;12.65;100.00;99674.00;5001988;28;20037;-86
2024/01/24 04:12:30;;;;;;;0.45;0.40;;;;;;;12.83;100.00;99679.34;5022240;28;20030;-86
2024/01/24 04:14:55;;;;;;;0.80;0.63;;;;;;;12.90;100.00;99668.50;5017783;28;20021;-87
2024/01/24 04:17:21;;;;;;;0.30;0.30;;;;;;;13.01;100.00;99676.53;5002085;28;20044;-88
2024/01/24 04:19:46;;;;;;;0.47;0.43;;;;;;;12.65;100.00;99654.31;5026516;28;20056;-88
2024/01/24 04:22:11;;;;;;;1.35;0.45;;;;;;;12.42;100.00;99667.53;5002334;28;20036;-88
2024/01/24 04:24:37;;;;;;;0.52;0.35;;;;;;;12.29;100.00;99642.13;5016585;28;20071;-89
2024/01/24 04:27:03;;;;;;;5.07;0.47;;;;;;;12.29;100.00;99652.94;5018385;28;20040;-88
2024/01/24 04:29:28;;;;;;;1.13;0.60;;;;;;;12.27;100.00;99668.75;4997569;28;20080;-89
2024/01/24 04:31:54;;;;;;;3.53;0.60;;;;;;;12.36;100.00;99659.06;5020917;28;20039;-88
2024/01/24 04:34:19;;;;;;;3.28;0.57;;;;;;;12.33;100.00;99648.28;5003535;28;20404;-89
2024/01/24 04:36:45;;;;;;;0.77;0.65;;;;;;;12.43;100.00;99650.94;4997021;28;20396;-88
2024/01/24 04:39:10;;;;;;;0.20;0.20;;;;;;;12.74;100.00;99638.44;5018373;28;20475;-88
2024/01/24 04:41:36;;;;;;;0.40;0.28;;;;;;;12.87;100.00;99655.00;4997560;28;20101;-88
2024/01/24 04:44:03;;;;;;;0.57;0.30;;;;;;;12.75;100.00;99647.34;4994512;28;20018;-88
2024/01/24 04:46:28;;;;;;;1.33;0.40;;;;;;;12.78;100.00;99660.03;5006377;28;20033;-89
2024/01/24 04:48:53;;;;;;;0.60;0.38;;;;;;;12.60;100.00;99657.44;5000275;28;20068;-88
2024/01/24 04:51:22;;;;;;;1.27;0.85;;;;;;;12.54;100.00;99648.97;5008570;28;20034;-89
2024/01/24 04:53:48;;;;;;;0.30;0.30;;;;;;;12.55;100.00;99655.91;5017444;28;20025;-89
2024/01/24 04:56:14;;;;;;;2.38;0.40;;;;;;;12.61;100.00;99658.97;5032517;28;20043;-88
2024/01/24 04:58:42;;;;;;;1.42;0.47;;;;;;;12.40;100.00;99670.63;5033464;28;20056;-89
2024/01/24 05:01:08;;;;;;;3.97;0.30;;;;;;;12.35;100.00;99662.91;5009923;28;20099;-89
2024/01/24 05:03:33;;;;;;;5.13;1.35;;;;;;;12.31;100.00;99656.00;5010389;28;20070;-88
2024/01/24 05:05:59;;;;;;;5.03;0.85;;;;;;;12.23;100.00;99649.84;5017286;28;20041;-88
2024/01/24 05:08:25;;;;;;;4.72;0.73;;;;;;;12.34;100.00;99676.81;5000801;28;20029;-89
2024/01/24 05:10:51;;;;;;;6.93;0.85;;;;;;;12.36;100.00;99675.28;5016082;28;20523;-89
2024/01/24 05:13:18;;;;;;;1.65;0.68;;;;;;;12.44;100.00;99679.50;5028819;28;20468;-88
2024/01/24 05:15:43;;;;;;;6.88;1.02;;;;;;;12.48;100.00;99698.38;5029384;28;20029;-89
2024/01/24 05:18:09;;;;;;;4.13;0.93;;;;;;;12.37;100.00;99693.00;5016965;28;20514;-89
2024/01/24 05:20:38;;;;;;;3.80;0.82;;;;;;;12.35;100.00;99710.78;5010189;28;20495;-89
2024/01/24 05:23:03;;;;;;;3.25;1.13;;;;;;;12.43;100.00;99685.28;5012892;28;20483;-89
2024/01/24 05:25:31;;;;;;;5.18;0.40;;;;;;;12.51;100.00;99692.19;5020668;28;20068;-90
2024/01/24 05:27:57;;;;;;;1.83;0.73;;;;;;;12.47;100.00;99711.09;4992640;28;20032;-89
2024/01/24 05:30:22;;;;;;;4.68;0.77;;;;;;;12.47;100.00;99703.00;5001580;28;20134;-89
2024/01/24 05:32:48;;;;;;;8.60;1.23;;;;;;;12.37;100.00;99709.19;5013293;28;20068;-89
2024/01/24 05:35:13;;;;;;;6.88;0.80;;;;;;;12.27;100.00;99709.25;5017336;28;20040;-88
2024/01/24 05:37:39;;;;;;;4.05;0.90;;;;;;;12.24;100.00;99704.59;5019568;28;20476;-90
2024/01/24 05:40:05;;;;;;;3.55;1.00;;;;;;;12.15;100.00;99704.25;5000413;28;20273;-90
2024/01/24 05:42:32;;;;;;;7.97;1.08;;;;;;;12.42;100.00;99710.75;5018610;28;20029;-89
2024/01/24 05:44:58;;;;;;;3.95;0.57;;;;;;;12.40;98.62;99723.88;5016156;28;20463;-89
2024/01/24 05:47:23;;;;;;;8.77;0.77;;;;;;;12.34;98.58;99725.41;5028087;28;20037;-88
2024/01/24 05:49:49;;;;;;;2.58;1.05;;;;;;;12.44;98.68;99705.72;5010741;28;20419;-89
2024/01/24 05:52:14;;;;;;;0.95;0.80;;;;;;;12.45;98.55;99702.63;5018768;28;20104;-89
2024/01/24 05:54:40;;;;;;;5.20;0.98;;;;;;;12.57;97.20;99731.16;5014250;28;20037;-88
2024/01/24 05:57:05;;;;;;;4.45;0.75;;;;;;;12.34;98.56;99747.78;5017315;28;20029;-89
2024/01/24 05:59:31;;;;;;;5.97;0.52;;;;;;;12.12;100.00;99729.28;5037281;28;20041;-89
2024/01/24 06:01:56;;;;;;;5.38;0.55;;;;;;;11.90;100.00;99743.97;5016284;28;20029;-89
2024/01/24 06:04:22;;;;;;;1.55;1.38;;;;;;;11.93;100.00;99749.38;5021023;28;20024;-89
2024/01/24 06:06:47;;;;;;;6.78;1.85;;;;;;;12.07;100.00;99751.28;5004851;28;20043;-89
2024/01/24 06:09:13;;;;;;;1.20;0.43;;;;;;;12.13;100.00;99753.22;5032171;28;20038;-89
2024/01/24 06:11:38;;;;;;;3.22;1.20;;;;;;;12.15;100.00;99752.81;5023928;28;20076;-89
2024/01/24 06:14:04;;;;;;;4.65;0.82;;;;;;;12.25;100.00;99739.31;5004450;28;20459;-89
2024/01/24 06:16:30;;;;;;;7.25;0.90;;;;;;;12.29;100.00;99753.56;5003309;28;20037;-88
2024/01/24 06:18:55;;;;;;;4.85;0.50;;;;;;;11.98;100.00;99740.88;5011917;28;20025;-88
2024/01/24 06:21:21;;;;;;;5.82;0.82;;;;;;;11.93;100.00;99757.47;5020910;28;20135;-89
2024/01/24 06:23:46;;;;;;;6.93;0.88;;;;;;;11.98;99.50;99754.34;5018131;28;20082;-88
2024/01/24 06:26:13;;;;;;;3.40;1.00;;;;;;;11.85;100.00;99750.50;5016219;28;20434;-91
2024/01/24 06:28:39;;;;;;;3.15;0.75;;;;;;;11.97;98.77;99776.34;5017954;28;20045;-87
2024/01/24 06:31:04;;;;;;;2.28;0.88;;;;;;;11.94;97.27;99769.03;5002820;28;20033;-87
2024/01/24 06:33:30;;;;;;;2.35;1.10;;;;;;;11.96;97.05;99759.41;5020826;28;20036;-87
2024/01/24 06:35:55;;;;;;;1.60;0.70;;;;;;;11.95;95.86;99755.16;5013807;28;20038;-89
2024/01/24 06:38:21;;;;;;;6.18;0.73;;;;;;;11.89;94.49;99767.47;5037156;28;20041;-88
2024/01/24 06:40:49;;;;;;;2.58;0.80;;;;;;;11.90;94.09;99781.75;5024030;28;20043;-89
2024/01/24 06:43:18;;;;;;;14.60;1.10;;;;;;;11.91;93.54;99777.88;5030685;28;20159;-88
2024/01/24 06:45:44;;;;;;;5.93;1.13;;;;;;;12.01;93.72;99777.88;5021013;28;20487;-88
2024/01/24 06:48:10;;;;;;;4.28;0.63;;;;;;;12.07;93.99;99770.94;4997682;28;20200;-88
2024/01/24 06:50:36;;;;;;;7.85;0.88;;;;;;;12.10;93.80;99770.16;5022718;28;20612;-88
2024/01/24 06:53:01;;;;;;;5.65;0.70;;;;;;;12.14;93.87;99775.56;5016901;28;20129;-88
2024/01/24 06:55:27;;;;;;;5.53;0.90;;;;;;;12.20;93.65;99774.78;5001593;28;20114;-89
2024/01/24 06:57:52;;;;;;;7.50;1.00;;;;;;;11.88;95.21;99775.97;5032597;28;20028;-88
2024/01/24 07:00:18;;;;;;;2.97;0.98;;;;;;;11.91;95.01;99797.53;5037461;28;20033;-89
2024/01/24 07:02:44;;;;;;;4.43;1.67;;;;;;;11.61;97.18;99787.06;5016744;28;20022;-89
2024/01/24 07:05:09;;;;;;;0.65;0.57;;;;;;;11.30;99.48;99798.56;5034987;28;20060;-88
2024/01/24 07:07:37;;;;;;;4.97;1.00;;;;;;;11.22;100.00;99790.81;5011096;28;20064;-88
2024/01/24 07:10:03;;;;;;;4.90;1.35;;;;;;;11.22;100.00;99780.03;5016696;28;20172;-88
2024/01/24 07:12:28;;;;;;;1.23;0.50;;;;;;;11.42;100.00;99800.88;5036279;28;20048;-88
2024/01/24 07:14:54;;;;;;;5.38;0.75;;;;;;;11.55;100.00;99787.84;5000848;28;20076;-88
2024/01/24 07:17:20;;;;;;;3.47;1.55;;;;;;;11.60;99.71;99806.31;5016090;28;20030;-88
2024/01/24 07:19:45;;;;;;;4.57;1.17;;;;;;;11.41;98.61;99804.75;5005571;28;20040;-88
2024/01/24 07:22:11;;;;;;;7.80;1.27;;;;;;;11.58;98.77;99787.84;5004190;28;20503;-88
2024/01/24 07:24:36;;;;;;;2.08;0.60;;;;;;;11.61;97.57;99805.94;5030043;28;20444;-88
2024/01/24 07:27:02;;;;;;;10.60;1.25;;;;;;;11.39;98.00;99811.66;5013170;28;20106;-88
2024/01/24 07:29:28;;;;;;;5.68;2.05;;;;;;;10.96;100.00;99785.69;5020109;28;20115;-88
2024/01/24 07:31:53;;;;;;;3.25;0.98;;;;;;;11.14;100.00;99795.41;5036743;28;20021;-88
2024/01/24 07:34:19;;;;;;;9.25;1.08;;;;;;;10.93;100.00;99819.56;5037591;28;20036;-88
2024/01/24 07:36:44;;;;;;;6.20;1.52;;;;;;;11.07;100.00;99818.84;5024524;28;20029;-89
2024/01/24 07:39:10;;;;;;;1.92;0.77;;;;;;;10.80;100.00;99831.81;5021085;28;20046;-90
2024/01/24 07:41:35;;;;;;;7.68;1.17;;;;;;;11.03;100.00;99818.06;5017337;28;20033;-89
2024/01/24 07:44:01;;;;;;;3.45;0.75;;;;;;;11.17;100.00;99847.78;5013756;28;20416;-89
2024/01/24 07:46:27;;;;;;;10.40;1.25;;;;;;;10.97;100.00;99851.91;5003318;28;20037;-89
2024/01/24 07:48:53;;;;;;;8.55;1.77;;;;;;;11.07;100.00;99848.50;5028481;28;20036;-90
2024/01/24 07:51:20;;;;;;;1.95;0.80;;;;;;;11.17;100.00;99848.53;5013431;28;20049;-89
2024/01/24 07:53:46;;;;;;;3.60;1.13;;;;;;;11.10;100.00;99847.72;5027564;28;20026;-89
2024/01/24 07:56:13;;;;;;;6.47;1.42;;;;;;;11.05;100.00;99864.25;5022099;28;20044;-89
2024/01/24 07:58:42;;;;;;;3.20;0.55;;;;;;;10.96;100.00;99842.25;5034574;28;20380;-90
2024/01/24 08:01:08;;;;;;;7.05;1.20;;;;;;;10.98;100.00;99848.81;5030085;28;20025;-88
2024/01/24 08:03:34;;;;;;;1.60;0.77;;;;;;;11.08;100.00;99847.34;5014853;28;20021;-89
2024/01/24 08:05:59;;;;;;;8.93;0.75;;;;;;;11.26;100.00;99856.28;5013721;28;20091;-89
2024/01/24 08:08:26;;;;;;;1.05;0.55;;;;;;;11.35;100.00;99870.19;5018587;28;20040;-90
2024/01/24 08:10:52;;;;;;;8.23;1.60;;;;;;;11.31;100.00;99858.59;5028439;28;20569;-90
2024/01/24 08:13:17;;;;;;;6.97;0.70;;;;;;;11.23;100.00;99873.19;5018295;28;20160;-89
2024/01/24 08:15:43;;;;;;;7.90;1.13;;;;;;;11.47;100.00;99880.63;5011322;28;20021;-87
2024/01/24 08:18:09;;;;;;;7.78;1.15;;;;;;;11.31;100.00;99888.25;5018744;28;20037;-89
2024/01/24 08:20:35;;;;;;;5.78;1.88;;;;;;;11.04;100.00;99892.34;5022108;28;20372;-91
2024/01/24 08:23:00;;;;;;;3.65;0.65;;;;;;;11.13;100.00;99884.72;5020824;28;20041;-90
2024/01/24 08:25:26;;;;;;;6.55;1.48;;;;;;;11.17;100.00;99890.91;4999050;28;20501;-90
2024/01/24 08:27:53;;;;;;;3.47;0.85;;;;;;;11.31;99.78;99905.22;5019034;28;20503;-89
2024/01/24 08:30:19;;;;;;;10.68;1.13;;;;;;;11.16;99.64;99897.41;5020324;28;20087;-89
2024/01/24 08:32:45;;;;;;;7.55;1.30;;;;;;;11.49;97.37;99910.69;5017448;28;20022;-89
2024/01/24 08:35:10;;;;;;;3.03;1.08;;;;;;;11.27;96.78;99917.88;5017460;28;20380;-91
2024/01/24 08:37:36;;;;;;;5.60;1.00;;;;;;;11.15;96.81;99918.19;5013582;28;20105;-90
2024/01/24 08:40:02;;;;;;;16.90;1.60;;;;;;;11.20;96.48;99925.16;5019883;28;20025;-90
2024/01/24 08:42:28;;;;;;;12.77;1.48;;;;;;;11.27;96.09;99917.09;5005082;28;20034;-90
2024/01/24 08:44:54;;;;;;;4.95;0.85;;;;;;;11.14;95.18;99905.88;5019074;28;20095;-90
2024/01/24 08:47:20;;;;;;;4.50;1.65;;;;;;;11.37;93.27;99911.00;5015865;28;20021;-90
2024/01/24 08:49:53;;;;;;;1.95;1.17;;;;;;;11.46;92.25;99933.78;5020353;28;20032;-89
2024/01/24 08:52:19;;;;;;;8.18;1.45;;;;;;;11.38;90.40;99882.91;5028412;28;20500;-89
2024/01/24 08:54:45;;;;;;;7.78;0.98;;;;;;;11.44;90.90;99917.19;5008587;28;20087;-90
2024/01/24 08:57:11;;;;;;;5.72;1.38;;;;;;;11.54;89.57;99910.31;5002846;28;20128;-89
2024/01/24 08:59:39;;;;;;;8.50;1.45;;;;;;;11.45;88.82;99929.53;5006827;28;20798;-90
2024/01/24 09:02:07;;;;;;;9.18;1.80;;;;;;;11.68;88.90;99916.56;5038530;28;20108;-89
2024/01/24 09:04:33;;;;;;;4.10;1.13;;;;;;;11.67;88.18;99919.66;5021434;28;20038;-89
2024/01/24 09:06:58;;;;;;;4.43;1.20;;;;;;;11.63;87.99;99940.41;5018885;28;20195;-89
2024/01/24 09:09:25;;;;;;;3.92;0.88;;;;;;;11.62;87.82;99925.38;5038330;28;20052;-90
2024/01/24 09:11:51;;;;;;;12.32;1.67;;;;;;;11.65;87.90;99951.59;5015574;28;20067;-91
2024/01/24 09:14:18;;;;;;;5.47;1.63;;;;;;;11.53;88.50;99941.91;5005559;28;20061;-88
2024/01/24 09:16:44;;;;;;;14.43;1.23;;;;;;;11.46;87.94;99963.44;5019572;28;20021;-90
2024/01/24 09:19:09;;;;;;;8.73;1.60;;;;;;;11.36;87.14;99939.88;5041754;28;20056;-88
2024/01/24 09:21:36;;;;;;;7.05;1.30;;;;;;;11.69;86.67;99957.81;5024423;28;20024;-86
2024/01/24 09:24:02;;;;;;;3.60;0.90;;;;;;;11.75;84.93;99948.19;5016302;28;20112;-86
2024/01/24 09:26:27;;;;;;;3.97;1.15;;;;;;;11.85;85.87;99943.97;5037848;28;20117;-86
2024/01/24 09:28:52;;;;;;;8.15;1.35;;;;;;;11.79;84.93;99943.56;5019647;28;20085;-87
2024/01/24 09:31:18;;;;;;;12.20;1.98;;;;;;;11.79;85.21;99965.16;5016751;28;20037;-86
2024/01/24 09:33:43;;;;;;;11.70;1.13;;;;;;;11.64;84.89;99955.44;5005752;28;20024;-87
2024/01/24 09:36:09;;;;;;;7.40;1.38;;;;;;;11.70;84.00;99962.03;5038729;28;20037;-86
2024/01/24 09:38:35;;;;;;;5.50;1.08;;;;;;;11.66;84.61;99963.94;5032683;28;20546;-86
2024/01/24 09:41:08;;;;;;;4.88;1.10;;;;;;;11.58;84.17;99975.81;5036478;28;20041;-86
2024/01/24 09:43:38;;;;;;;5.38;1.88;;;;;;;11.65;84.01;99983.97;5032652;28;20471;-86
2024/01/24 09:46:09;;;;;;;4.07;1.48;;;;;;;11.53;84.02;99963.47;5013521;28;20038;-86
2024/01/24 09:48:34;;;;;;;1.73;0.90;;;;;;;11.54;83.65;99972.31;5016535;28;20584;-85
2024/01/24 09:51:00;;;;;;;2.95;0.95;;;;;;;11.46;84.00;99968.81;5014564;28;20108;-86
2024/01/24 09:53:29;;;;;;;4.22;0.93;;;;;;;11.56;84.14;99957.31;5036825;28;20037;-85
2024/01/24 09:55:55;;;;;;;6.07;1.25;;;;;;;11.73;84.07;99953.97;5014016;28;20120;-87
2024/01/24 09:58:20;;;;;;;16.98;1.77;;;;;;;11.72;83.16;99954.34;5017296;28;20666;-86
2024/01/24 10:00:47;;;;;;;7.68;1.13;;;;;;;11.56;83.71;99960.03;5006431;28;20040;-87
2024/01/24 10:03:13;;;;;;;1.95;1.00;;;;;;;11.69;83.41;99990.19;5016179;28;20029;-86
2024/01/24 10:05:40;;;;;;;3.40;0.85;;;;;;;11.40;83.38;99969.56;5005269;28;20032;-89
2024/01/24 10:08:06;;;;;;;8.20;1.67;;;;;;;11.57;84.31;99979.69;5022229;28;20038;-89
2024/01/24 10:10:31;;;;;;;6.75;1.42;;;;;;;11.61;84.50;99993.97;5021683;28;20093;-88
2024/01/24 10:12:57;;;;;;;3.00;0.98;;;;;;;11.66;84.08;99983.59;5018645;28;20032;-88
2024/01/24 10:15:23;;;;;;;10.27;1.13;;;;;;;11.63;83.30;99983.56;5009454;28;20116;-89
2024/01/24 10:17:49;;;;;;;5.50;1.08;;;;;;;11.74;83.25;99981.72;5004885;28;20043;-88
2024/01/24 10:20:15;;;;;;;7.72;1.60;;;;;;;11.51;81.74;99959.63;4999874;28;20034;-89
2024/01/24 10:22:43;;;;;;;3.25;0.93;;;;;;;11.61;83.34;99991.25;5020375;28;20017;-89
2024/01/24 10:25:10;;;;;;;6.75;1.00;;;;;;;11.77;82.52;99978.25;5017425;28;20040;-89
2024/01/24 10:27:40;;;;;;;5.25;1.08;;;;;;;11.80;81.42;99977.50;5002550;28;20069;-89
2024/01/24 10:30:11;;;;;;;9.88;1.27;;;;;;;11.79;80.09;99965.94;5014824;28;20017;-89
2024/01/24 10:32:37;;;;;;;5.25;1.35;;;;;;;11.79;79.91;99975.94;5019284;28;20486;-89
2024/01/24 10:35:08;;;;;;;10.50;0.88;;;;;;;11.76;81.09;99982.88;5012323;28;20038;-89
2024/01/24 10:37:34;;;;;;;12.68;1.15;;;;;;;11.79;81.35;99982.13;5004420;28;20033;-89
2024/01/24 10:40:11;;;;;;;7.68;1.20;;;;;;;11.85;81.38;99990.63;5021411;28;20040;-91
2024/01/24 10:42:40;;;;;;;6.45;0.93;;;;;;;11.62;83.00;99976.59;5009891;28;20548;-90
2024/01/24 10:45:06;;;;;;;7.75;1.20;;;;;;;11.68;84.65;99996.72;5016075;28;20042;-89
2024/01/24 10:47:35;;;;;;;8.35;1.33;;;;;;;11.71;85.10;100006.75;5015163;28;20021;-88
2024/01/24 10:50:06;;;;;;;6.70;1.20;;;;;;;11.58;85.68;99990.06;5013883;28;20120;-88
2024/01/24 10:52:35;;;;;;;6.22;0.95;;;;;;;11.64;86.53;100010.16;5009491;28;20033;-87
2024/01/24 10:55:04;;;;;;;3.90;1.83;;;;;;;11.52;86.97;100009.69;5027787;28;20487;-88
2024/01/24 10:57:32;;;;;;;8.00;2.22;;;;;;;11.56;86.91;100005.09;5012021;28;20172;-87
2024/01/24 10:59:57;;;;;;;7.10;1.95;;;;;;;11.40;86.88;100007.31;5041584;28;20025;-87
2024/01/24 11:02:23;;;;;;;7.50;1.25;;;;;;;11.49;86.51;100015.84;5023166;28;20033;-87
2024/01/24 11:04:51;;;;;;;4.68;1.45;;;;;;;11.45;85.72;100023.13;5039497;28;20130;-87
2024/01/24 11:07:27;;;;;;;4.80;1.52;;;;;;;11.40;86.15;100010.75;5012927;28;20395;-87
2024/01/24 11:10:11;;;;;;;9.77;1.55;;;;;;;11.55;86.19;100015.13;4999896;28;20499;-88
2024/01/24 11:12:36;;;;;;;7.88;1.67;;;;;;;11.42;87.94;100011.16;5022742;28;20029;-85
2024/01/24 11:15:06;;;;;;;14.00;3.35;;;;;;;11.34;87.73;100011.50;5030802;28;20088;-85
2024/01/24 11:17:35;;;;;;;5.82;0.93;;;;;;;11.30;88.57;100005.31;5033735;28;20819;-85
2024/01/24 11:20:06;;;;;;;3.45;1.50;;;;;;;11.42;88.15;100023.88;5029247;28;20132;-86
2024/01/24 11:22:32;;;;;;;8.32;1.48;;;;;;;11.36;89.45;100052.34;5036496;28;20111;-85
2024/01/24 11:24:59;;;;;;;6.32;0.80;;;;;;;11.54;89.60;100039.75;5028699;28;20045;-85
2024/01/24 11:27:33;;;;;;;14.27;3.40;;;;;;;11.10;90.64;100053.28;5023790;28;20045;-85
2024/01/24 11:30:29;;;;;;;2.55;0.85;;;;;;;11.32;91.20;100051.53;5048321;28;20437;-84
2024/01/24 11:32:58;;;;;;;7.78;1.88;;;;;;;11.09;92.77;100050.97;5005923;28;20048;-85
2024/01/24 11:35:38;;;;;;;8.40;1.80;;;;;;;11.11;93.89;100056.78;5018258;28;20034;-85
2024/01/24 11:38:26;;;;;;;6.53;1.08;;;;;;;10.83;95.81;100065.38;5024694;28;20128;-84
2024/01/24 11:41:31;;;;;;;8.95;1.65;;;;;;;11.12;94.99;100063.69;5020026;28;20086;-85
2024/01/24 11:43:56;;;;;;;3.53;1.00;;;;;;;11.05;96.20;100069.81;4996589;28;20512;-86
2024/01/24 11:46:22;;;;;;;2.28;0.90;;;;;;;11.15;96.64;100082.59;5017862;28;20044;-85
2024/01/24 11:48:48;;;;;;;8.80;1.40;;;;;;;10.98;98.17;100066.25;5014221;28;20089;-86
2024/01/24 11:51:15;;;;;;;2.05;1.00;;;;;;;10.97;98.21;100083.59;5017341;28;20029;-85
2024/01/24 11:53:41;;;;;;;4.55;1.17;;;;;;;10.86;97.94;100086.16;5049396;28;20037;-83
2024/01/24 11:56:11;;;;;;;9.80;1.00;;;;;;;10.52;99.09;100088.13;5027499;28;20040;-86
2024/01/24 11:58:37;;;;;;;5.35;1.40;;;;;;;10.63;100.00;100088.22;5015950;28;20373;-85
2024/01/24 12:01:13;;;;;;;6.35;0.98;;;;;;;10.64;99.51;100097.88;5023159;28;20037;-86
2024/01/24 12:03:46;;;;;;;4.25;0.90;;;;;;;10.48;100.00;100100.78;5044094;28;20026;-85
2024/01/24 12:06:12;;;;;;;6.88;0.85;;;;;;;10.41;100.00;100111.47;5036535;28;20571;-85
2024/01/24 12:08:37;;;;;;;8.73;1.75;;;;;;;10.59;100.00;100120.50;5042016;28;20060;-85
2024/01/24 12:11:04;;;;;;;10.27;1.35;;;;;;;10.51;100.00;100124.25;5005720;28;20064;-85
2024/01/24 12:13:29;;;;;;;4.88;1.58;;;;;;;10.48;100.00;100130.38;5041212;28;20111;-85
2024/01/24 12:15:56;;;;;;;5.80;2.15;;;;;;;10.60;100.00;100126.69;5026118;28;20063;-85
2024/01/24 12:18:22;;;;;;;10.50;1.80;;;;;;;10.42;100.00;100128.38;5019647;28;20071;-85
2024/01/24 12:20:50;;;;;;;8.02;1.25;;;;;;;10.37;100.00;100128.72;5020695;28;20116;-85
2024/01/24 12:23:16;;;;;;;6.38;1.25;;;;;;;10.45;100.00;100147.25;5035418;28;20041;-84
2024/01/24 12:25:43;;;;;;;11.52;2.03;;;;;;;10.29;100.00;100143.22;5029233;28;20025;-84